ADDS METAR Data INFO
IDs: Format: Raw Decoded Include TAF

Data at: 2112 UTC 22 Oct 2017

KXIH 222055Z AUTO 01011KT 10SM FEW030 FEW035 SCT095 21/17 A3006 RMK A01
KXIH 222035Z AUTO 01008G14KT 10SM FEW029 SCT035 23/18 A3006 RMK A01
KXIH 222015Z AUTO 00000KT 10SM CLR 23/16 A3005 RMK A01
KXIH 221955Z AUTO 10006KT 10SM FEW090 22/16 A3003 RMK A01
KXIH 221935Z AUTO 12008G15KT 9SM SCT085 22/16 A3002 RMK A01
KXIH 221915Z AUTO 14016KT 9SM FEW030 FEW042 SCT085 22/16 A3000 RMK A01
KXIH 221855Z AUTO 14021G27KT 1 1/2SM HZ SCT005 BKN030 OVC080 21/17 A3001 RMK A01
KXIH 221835Z AUTO 12016KT 8SM FEW055 FEW075 BKN085 21/16 A3005 RMK A01
KXIH 221815Z AUTO 10021KT 5SM HZ CLR 21/17 A3004 RMK A01
KXIH 221755Z AUTO 09022KT 4SM HZ FEW065 SCT075 20/16 A3005 RMK A01
KXIH 221735Z AUTO 09024G30KT 4SM HZ FEW035 FEW043 BKN065 20/16 A3007 RMK A01
KXIH 221715Z AUTO 07031KT 2SM HZ BKN032 BKN043 BKN060 19/16 A3007 RMK A01
KXIH 221655Z AUTO 05032G39KT 2SM HZ FEW028 SCT060 BKN075 20/15 A3011 RMK A01
KXIH 221635Z AUTO 05031KT 2SM HZ FEW037 SCT049 OVC075 20/15 A3012 RMK A01
KXIH 221615Z AUTO 06034KT 2 1/2SM HZ FEW004 SCT038 BKN050 20/16 A3011 RMK A01
KXIH 221555Z AUTO 07034G41KT 5SM HZ FEW042 SCT050 BKN075 20/16 A3010 RMK A01
KXIH 221535Z AUTO 06035G42KT 1 1/4SM HZ FEW005 SCT020 SCT027 19/16 A3010 RMK A01
KXIH 221515Z AUTO 05036G45KT 1/4SM HZ SCT005 BKN022 OVC041 19/17 A3009 RMK A01
KXIH 221455Z AUTO 04038G55KT 1/4SM HZ SCT004 BKN016 OVC032 19/16 A3010 RMK A01
KXIH 221435Z AUTO 04040G49KT 4SM HZ FEW014 BKN020 BKN044 21/17 A3004 RMK A01
KXIH 221415Z AUTO 03005KT 10SM FEW085 27/24 A3004 RMK A01
KXIH 221355Z AUTO 00000KT 10SM CLR 27/24 A3002 RMK A01
KXIH 221335Z AUTO 00000KT 10SM FEW100 27/24 A3001 RMK A01
KXIH 221315Z AUTO 00000KT 10SM SCT100 27/24 A3000 RMK A01
KXIH 221255Z AUTO 00000KT 10SM CLR 27/24 A2999 RMK A01
KXIH 221235Z AUTO 27003KT 10SM CLR 27/24 A2999 RMK A01
KXIH 221215Z AUTO 26006KT 10SM CLR 27/24 A2998 RMK A01
KXIH 221155Z AUTO 27005KT 10SM FEW022 FEW110 27/23 A2999 RMK A01
KXIH 221135Z AUTO 27006G15KT 9SM FEW020 FEW026 SCT110 26/23 A2999 RMK A01
KXIH 221115Z AUTO 25010KT 10SM FEW046 27/24 A2998 RMK A01
KXIH 221055Z AUTO 25009KT 10SM FEW024 FEW039 BKN047 27/24 A2998 RMK A01
KXIH 221035Z AUTO 24010KT 10SM FEW022 SCT030 BKN038 27/24 A2997 RMK A01
KXIH 221015Z AUTO 25012KT 10SM FEW015 BKN021 OVC060 27/24 A2996 RMK A01
KXIH 220955Z AUTO 24010KT 8SM SCT020 BKN027 BKN037 27/24 A2995 RMK A01
KXIH 220935Z AUTO 21011KT 10SM FEW023 FEW029 SCT044 27/24 A2995 RMK A01
KXIH 220915Z AUTO 22007KT 10SM CLR 27/24 A2995 RMK A01
KXIH 220855Z AUTO 22007KT 10SM CLR 27/24 A2995 RMK A01
KXIH 220835Z AUTO 21012KT 10SM CLR 27/24 A2995 RMK A01
KXIH 220815Z AUTO 21012KT 10SM CLR 27/24 A2995 RMK A01
KXIH 220755Z AUTO 21014KT 10SM FEW025 27/24 A2995 RMK A01
KXIH 220735Z AUTO 20012KT 10SM SCT019 BKN024 27/24 A2995 RMK A01
KXIH 220715Z AUTO 20012KT 10SM SCT021 27/24 A2995 RMK A01
KXIH 220655Z AUTO 20012G17KT 10SM FEW017 FEW023 SCT028 27/24 A2995 RMK A01
KXIH 220635Z AUTO 19013KT 10SM SCT016 27/24 A2995 RMK A01
KXIH 220615Z AUTO 19014KT 10SM FEW014 27/24 A2995 RMK A01
KXIH 220555Z AUTO 18011G16KT 10SM CLR 27/24 A2994 RMK A01
KXIH 220535Z AUTO 18013G19KT 10SM CLR 27/24 A2994 RMK A01
KXIH 220515Z AUTO 17012G19KT 10SM CLR 27/24 A2995 RMK A01
KXIH 220455Z AUTO 17017KT 10SM CLR 27/24 A2994 RMK A01
KXIH 220435Z AUTO 17014KT 10SM CLR 27/24 A2995 RMK A01
KXIH 220415Z AUTO 17012G19KT 10SM FEW017 27/24 A2996 RMK A01
KXIH 220355Z AUTO 18009KT 10SM BKN017 27/24 A2996 RMK A01
KXIH 220335Z AUTO 18009G14KT 10SM BKN016 BKN021 27/24 A2996 RMK A01
KXIH 220315Z AUTO 18008G13KT 10SM FEW016 27/24 A2996 RMK A01
KXIH 220255Z AUTO 18008G14KT 10SM CLR 27/23 A2995 RMK A01
KXIH 220235Z AUTO 18009G14KT 10SM CLR 27/24 A2994 RMK A01
KXIH 220215Z AUTO 18009G16KT 10SM CLR 27/23 A2993 RMK A01
KXIH 220155Z AUTO 17014KT 10SM CLR 27/24 A2993 RMK A01
KXIH 220135Z AUTO 18008G14KT 10SM CLR 27/24 A2993 RMK A01
KXIH 220115Z AUTO 18008G14KT 10SM CLR 27/23 A2993 RMK A01
KXIH 220055Z AUTO 18009G15KT 10SM CLR 27/24 A2993 RMK A01
KXIH 220035Z AUTO 18008G13KT 10SM CLR 27/23 A2993 RMK A01
KXIH 220015Z AUTO 19010KT 10SM FEW017 27/23 A2992 RMK A01
KXIH 212355Z AUTO 17012KT 10SM FEW017 27/24 A2992 RMK A01
KXIH 212335Z AUTO 16012KT 10SM FEW015 27/24 A2992 RMK A01
KXIH 212315Z AUTO 16011KT 10SM SCT015 27/24 A2992 RMK A01
KXIH 212255Z AUTO 17010KT 10SM CLR 28/23 A2992 RMK A01
KXIH 212235Z AUTO 17011KT 10SM CLR 28/24 A2992 RMK A01
KXIH 212215Z AUTO 17010KT 10SM CLR 29/24 A2992 RMK A01
KXIH 212155Z AUTO 17013KT 10SM SCT021 SCT027 29/23 A2992 RMK A01
KXIH 212135Z AUTO 16011KT 10SM BKN020 SCT025 29/24 A2992 RMK A01
KXIH 212115Z AUTO 16012KT 10SM BKN020 BKN025 BKN050 28/23 A2992 RMK A01
KXIH 212055Z AUTO 16011KT 10SM SCT020 29/24 A2992 RMK A01
KXIH 212035Z AUTO 17010KT 10SM FEW017 30/24 A2992 RMK A01
KXIH 212015Z AUTO 17012KT 10SM FEW016 30/24 A2993 RMK A01
KXIH 211955Z AUTO 17013KT 10SM CLR 30/24 A2992 RMK A01
KXIH 211935Z AUTO 18007G14KT 10SM CLR 29/24 A2992 RMK A01
KXIH 211915Z AUTO 18009G15KT 10SM CLR 29/24 A2992 RMK A01
KXIH 211855Z AUTO 17015KT 10SM FEW046 29/24 A2993 RMK A01
KXIH 211835Z AUTO 17014KT 10SM FEW046 29/24 A2993 RMK A01
KXIH 211815Z AUTO 17013KT 10SM CLR 29/24 A2994 RMK A01
KXIH 211755Z AUTO 17013KT 10SM CLR 29/24 A2995 RMK A01
KXIH 211735Z AUTO 18010KT 10SM CLR 29/24 A2996 RMK A01
KXIH 211715Z AUTO 18008G14KT CLR 29/24 A2997 RMK A01
KXIH 211655Z AUTO 18007G12KT 150V210 10SM CLR 28/24 A2998 RMK A01
KXIH 211635Z AUTO 17010KT 10SM CLR 29/24 A2998 RMK A01
KXIH 211615Z AUTO 18007KT 10SM FEW048 29/24 A2998 RMK A01
KXIH 211555Z AUTO 19006KT 10SM CLR 29/24 A2998 RMK A01
KXIH 211535Z AUTO 20008KT 10SM CLR 29/24 A2998 RMK A01
KXIH 211515Z AUTO 20008KT 9SM CLR 29/24 A2998 RMK A01
KXIH 211455Z AUTO 19009KT 10SM CLR 29/24 A2997 RMK A01
KXIH 211435Z AUTO 19009KT 10SM CLR 28/24 A2997 RMK A01
KXIH 211415Z AUTO 19007G12KT 10SM CLR 28/24 A2996 RMK A01
KXIH 211355Z AUTO 19009KT 10SM CLR 28/23 A2996 RMK A01
KXIH 211335Z AUTO 19008KT 10SM FEW046 28/23 A2996 RMK A01
KXIH 211315Z AUTO 19009KT 9SM SCT044 27/24 A2996 RMK A01
KXIH 211255Z AUTO 19009KT 9SM BKN042 27/23 A2995 RMK A01
KXIH 211235Z AUTO 19011KT 10SM BKN042 27/23 A2994 RMK A01
KXIH 211215Z AUTO 19011G16KT 10SM CLR 27/23 A2993 RMK A01
KXIH 211155Z AUTO 19014KT 10SM CLR 26/23 A2993 RMK A01
KXIH 211135Z AUTO 18011G17KT 10SM FEW017 27/23 A2992 RMK A01
KXIH 211115Z AUTO 19014KT 10SM FEW018 27/23 A2992 RMK A01
KXIH 211055Z AUTO 20014KT 10SM CLR 27/23 A2991 RMK A01
KXIH 211035Z AUTO 20016KT 10SM FEW044 27/23 A2991 RMK A01
KXIH 211015Z AUTO 20015G20KT 9SM SCT043 27/23 A2991 RMK A01
KXIH 210955Z AUTO 20015KT 10SM FEW032 FEW039 FEW055 27/23 A2991 RMK A01
KXIH 210935Z AUTO 19015KT 10SM SCT023 SCT029 BKN033 27/23 A2991 RMK A01
KXIH 210915Z AUTO 19012G21KT 10SM BKN027 BKN033 27/22 A2991 RMK A01